Time;durP1;ratioP1;P1;durP2;ratioP2;P2;SDS_P1;SDS_P2;PMS_P1;PMS_P2;Temp;Humidity;BMP_temperature;BMP_pressure;BME280_temperature;BME280_humidity;BME280_pressure;Samples;Min_cycle;Max_cycle;Signal;HPM_P1;HPM_P2
2023/03/16 00:00:56;;;;;;;9.10;8.13;;;;;;;;;;5013460;28;20457;-54
2023/03/16 00:03:33;;;;;;;8.53;7.00;;;;;;;;;;5029798;28;20434;-55
2023/03/16 00:06:00;;;;;;;11.83;9.20;;;;;;;;;;4991539;28;20960;-54
2023/03/16 00:08:26;;;;;;;8.80;7.90;;;;;;;;;;5036864;28;20441;-54
2023/03/16 00:10:53;;;;;;;9.33;7.67;;;;;;;;;;4990727;28;20455;-55
2023/03/16 00:13:22;;;;;;;12.60;9.27;;;;;;;;;;5039488;28;20969;-54
2023/03/16 00:15:54;;;;;;;11.10;8.40;;;;;;;;;;5002323;28;21077;-54
2023/03/16 00:18:20;;;;;;;12.33;9.03;;;;;;;;;;5033729;28;20525;-56
2023/03/16 00:20:50;;;;;;;13.73;9.57;;;;;;;;;;5003276;28;20469;-54
2023/03/16 00:23:16;;;;;;;13.30;10.40;;;;;;;;;;5037581;28;21012;-53
2023/03/16 00:25:42;;;;;;;10.23;7.83;;;;;;;;;;5001196;28;20545;-55
2023/03/16 00:28:08;;;;;;;13.40;9.90;;;;;;;;;;5037337;28;20430;-54
2023/03/16 00:30:34;;;;;;;12.47;9.30;;;;;;;;;;5010801;28;20474;-55
2023/03/16 00:33:00;;;;;;;12.07;9.70;;;;;;;;;;5027439;28;20499;-56
2023/03/16 00:35:26;;;;;;;12.47;9.40;;;;;;;;;;4995122;28;20478;-54
2023/03/16 00:37:56;;;;;;;12.93;10.47;;;;;;;;;;5020903;28;20447;-55
2023/03/16 00:40:22;;;;;;;10.97;9.17;;;;;;;;;;4986680;28;21295;-54
2023/03/16 00:42:48;;;;;;;11.63;9.77;;;;;;;;;;5034779;28;20517;-56
2023/03/16 00:45:14;;;;;;;13.30;8.80;;;;;;;;;;5015622;28;21198;-56
2023/03/16 00:47:41;;;;;;;16.37;10.50;;;;;;;;;;5014701;28;21003;-55
2023/03/16 00:50:07;;;;;;;10.87;9.77;;;;;;;;;;5018441;28;20456;-54
2023/03/16 00:52:34;;;;;;;12.60;10.00;;;;;;;;;;5009281;28;20998;-55
2023/03/16 00:55:02;;;;;;;12.60;11.30;;;;;;;;;;5036215;28;21056;-54
2023/03/16 00:57:29;;;;;;;13.53;10.23;;;;;;;;;;5029380;28;20440;-54
2023/03/16 00:59:55;;;;;;;11.23;9.53;;;;;;;;;;5031010;28;20620;-54
2023/03/16 01:02:23;;;;;;;16.00;11.20;;;;;;;;;;5009139;28;20599;-55
2023/03/16 01:04:49;;;;;;;16.73;11.93;;;;;;;;;;5041090;28;20940;-55
2023/03/16 01:07:15;;;;;;;16.37;11.17;;;;;;;;;;4999091;28;20470;-54
2023/03/16 01:09:41;;;;;;;15.97;11.93;;;;;;;;;;5031677;28;20964;-56
2023/03/16 01:12:08;;;;;;;12.50;9.70;;;;;;;;;;4986559;28;22312;-54
2023/03/16 01:14:34;;;;;;;14.50;10.73;;;;;;;;;;5031344;28;20527;-55
2023/03/16 01:17:00;;;;;;;14.13;11.50;;;;;;;;;;5002509;28;20442;-55
2023/03/16 01:19:26;;;;;;;15.30;10.40;;;;;;;;;;5031767;28;20454;-54
2023/03/16 01:21:52;;;;;;;12.87;8.77;;;;;;;;;;5003612;28;20434;-54
2023/03/16 01:24:18;;;;;;;13.40;10.83;;;;;;;;;;5023833;28;21013;-55
2023/03/16 01:26:44;;;;;;;17.03;11.63;;;;;;;;;;5009440;28;20449;-55
2023/03/16 01:29:11;;;;;;;11.57;9.60;;;;;;;;;;5030262;28;21119;-56
2023/03/16 01:31:37;;;;;;;16.00;10.63;;;;;;;;;;5029007;28;20450;-55
2023/03/16 01:34:04;;;;;;;14.43;10.90;;;;;;;;;;5049075;28;20500;-55
2023/03/16 01:36:33;;;;;;;14.17;10.40;;;;;;;;;;4997123;28;21076;-56
2023/03/16 01:38:59;;;;;;;13.13;10.90;;;;;;;;;;5020404;28;20579;-53
2023/03/16 01:41:26;;;;;;;13.50;8.90;;;;;;;;;;4996917;28;20471;-56
2023/03/16 01:43:52;;;;;;;14.40;10.60;;;;;;;;;;5031708;28;20458;-54
2023/03/16 01:46:25;;;;;;;13.27;10.63;;;;;;;;;;5028674;28;20529;-55
2023/03/16 01:49:07;;;;;;;13.03;9.30;;;;;;;;;;5036877;28;20443;-56
2023/03/16 01:51:32;;;;;;;13.20;8.93;;;;;;;;;;5008621;28;21162;-56
2023/03/16 01:54:01;;;;;;;16.93;10.83;;;;;;;;;;5036174;28;21506;-54
2023/03/16 01:56:29;;;;;;;19.40;11.17;;;;;;;;;;5012394;28;20469;-55
2023/03/16 01:58:57;;;;;;;13.43;9.43;;;;;;;;;;5039151;28;20494;-53
2023/03/16 02:01:23;;;;;;;14.57;9.10;;;;;;;;;;5004369;28;20441;-56
2023/03/16 02:03:54;;;;;;;12.73;9.60;;;;;;;;;;5030220;28;20469;-54
2023/03/16 02:06:22;;;;;;;13.00;8.93;;;;;;;;;;5033061;28;20529;-53
2023/03/16 02:08:48;;;;;;;12.90;8.57;;;;;;;;;;5038560;28;20454;-54
2023/03/16 02:11:17;;;;;;;14.57;9.10;;;;;;;;;;5008171;28;20446;-54
2023/03/16 02:13:44;;;;;;;20.63;10.50;;;;;;;;;;5037214;28;20464;-54
2023/03/16 02:16:10;;;;;;;20.80;11.70;;;;;;;;;;5001314;28;21171;-54
2023/03/16 02:18:36;;;;;;;15.10;10.73;;;;;;;;;;5038392;28;21024;-53
2023/03/16 02:21:15;;;;;;;12.40;8.90;;;;;;;;;;5026120;28;21016;-53
2023/03/16 02:23:43;;;;;;;12.40;9.40;;;;;;;;;;5034190;28;24369;-54
2023/03/16 02:26:21;;;;;;;17.37;10.83;;;;;;;;;;5012019;28;20917;-55
2023/03/16 02:28:55;;;;;;;16.87;11.80;;;;;;;;;;5030792;28;20564;-55
2023/03/16 02:31:21;;;;;;;12.37;9.83;;;;;;;;;;5019388;28;20469;-55
2023/03/16 02:33:47;;;;;;;15.33;11.17;;;;;;;;;;5028242;28;20449;-54
2023/03/16 02:36:17;;;;;;;16.40;10.80;;;;;;;;;;5023129;28;20475;-55
2023/03/16 02:38:43;;;;;;;15.10;11.83;;;;;;;;;;5043492;28;20998;-55
2023/03/16 02:41:11;;;;;;;15.07;11.20;;;;;;;;;;5038097;28;20445;-55
2023/03/16 02:43:38;;;;;;;16.57;11.60;;;;;;;;;;5047947;28;20518;-58
2023/03/16 02:46:04;;;;;;;13.10;10.97;;;;;;;;;;4977891;28;20895;-55
2023/03/16 02:48:33;;;;;;;14.07;9.33;;;;;;;;;;5041752;28;20434;-54
2023/03/16 02:50:58;;;;;;;15.03;10.33;;;;;;;;;;4993992;28;21222;-55
2023/03/16 02:53:24;;;;;;;11.47;10.27;;;;;;;;;;5034507;28;20474;-54
2023/03/16 02:55:50;;;;;;;16.77;10.10;;;;;;;;;;5006072;28;20496;-55
2023/03/16 02:58:16;;;;;;;15.57;10.87;;;;;;;;;;5038352;28;20439;-55
2023/03/16 03:00:44;;;;;;;14.33;10.67;;;;;;;;;;5010115;28;21059;-54
2023/03/16 03:03:10;;;;;;;12.80;9.47;;;;;;;;;;5037402;28;20434;-54
2023/03/16 03:05:36;;;;;;;13.20;10.57;;;;;;;;;;5010090;28;20936;-55
2023/03/16 03:08:02;;;;;;;12.60;9.93;;;;;;;;;;5037123;28;20442;-55
2023/03/16 03:10:28;;;;;;;14.13;10.23;;;;;;;;;;5029171;28;20615;-55
2023/03/16 03:12:54;;;;;;;15.47;9.40;;;;;;;;;;5025028;28;20453;-55
2023/03/16 03:15:25;;;;;;;11.10;9.30;;;;;;;;;;5015118;28;21351;-56
2023/03/16 03:17:52;;;;;;;16.53;11.20;;;;;;;;;;5010891;28;20830;-54
2023/03/16 03:20:18;;;;;;;15.27;11.87;;;;;;;;;;5005010;28;20933;-54
2023/03/16 03:22:45;;;;;;;15.50;10.70;;;;;;;;;;5029188;28;20434;-54
2023/03/16 03:25:13;;;;;;;13.43;9.43;;;;;;;;;;5017560;28;20447;-55
2023/03/16 03:27:41;;;;;;;15.33;9.50;;;;;;;;;;5022337;28;20453;-54
2023/03/16 03:30:08;;;;;;;14.60;11.00;;;;;;;;;;5019860;28;20502;-55
2023/03/16 03:32:34;;;;;;;12.13;10.10;;;;;;;;;;5024344;28;20453;-54
2023/03/16 03:35:00;;;;;;;14.67;10.27;;;;;;;;;;5020126;28;20474;-55
2023/03/16 03:37:26;;;;;;;12.90;9.57;;;;;;;;;;5021665;28;20977;-55
2023/03/16 03:39:52;;;;;;;17.67;10.90;;;;;;;;;;5030171;28;20586;-54
2023/03/16 03:42:18;;;;;;;13.53;10.40;;;;;;;;;;5026124;28;20437;-55
2023/03/16 03:44:44;;;;;;;16.10;10.80;;;;;;;;;;5025273;28;20442;-55
2023/03/16 03:47:10;;;;;;;16.17;11.47;;;;;;;;;;4999041;28;20967;-53
2023/03/16 03:49:36;;;;;;;13.87;9.50;;;;;;;;;;5018820;28;20449;-54
2023/03/16 03:52:03;;;;;;;16.50;11.40;;;;;;;;;;4997874;28;20546;-56
2023/03/16 03:54:30;;;;;;;13.77;11.07;;;;;;;;;;5018636;28;20580;-55
2023/03/16 03:56:56;;;;;;;15.13;10.67;;;;;;;;;;4995098;28;20545;-54
2023/03/16 03:59:21;;;;;;;10.43;8.50;;;;;;;;;;5027236;28;20450;-56
2023/03/16 04:01:48;;;;;;;15.67;11.43;;;;;;;;;;4995827;28;21287;-54
2023/03/16 04:04:14;;;;;;;17.40;12.57;;;;;;;;;;5029633;28;20727;-54
2023/03/16 04:06:40;;;;;;;18.50;11.20;;;;;;;;;;5003889;28;21416;-55
2023/03/16 04:09:06;;;;;;;13.17;10.10;;;;;;;;;;5031363;28;20438;-55
2023/03/16 04:11:32;;;;;;;11.87;10.20;;;;;;;;;;4993798;28;20450;-54
2023/03/16 04:13:58;;;;;;;12.87;8.87;;;;;;;;;;5032974;28;20430;-54
2023/03/16 04:16:25;;;;;;;15.77;9.17;;;;;;;;;;5006812;28;21306;-55
2023/03/16 04:18:53;;;;;;;15.20;8.97;;;;;;;;;;5029302;28;20537;-56
2023/03/16 04:21:22;;;;;;;12.93;10.60;;;;;;;;;;5014616;28;20659;-56
2023/03/16 04:23:48;;;;;;;17.93;10.57;;;;;;;;;;5023248;28;20435;-53
2023/03/16 04:26:15;;;;;;;13.87;10.40;;;;;;;;;;5013150;28;22639;-56
2023/03/16 04:28:42;;;;;;;13.73;10.00;;;;;;;;;;5029778;28;20446;-56
2023/03/16 04:31:15;;;;;;;21.50;12.50;;;;;;;;;;5021910;28;20437;-56
2023/03/16 04:33:42;;;;;;;13.47;9.80;;;;;;;;;;5019486;28;20449;-55
2023/03/16 04:36:08;;;;;;;16.27;10.33;;;;;;;;;;5032700;28;20979;-55
2023/03/16 04:38:34;;;;;;;17.43;11.90;;;;;;;;;;5037120;28;20895;-54
2023/03/16 04:41:01;;;;;;;18.03;10.30;;;;;;;;;;5024509;28;20450;-55
2023/03/16 04:43:27;;;;;;;12.10;9.63;;;;;;;;;;5019220;28;20428;-55
2023/03/16 04:45:53;;;;;;;15.13;11.60;;;;;;;;;;5022825;28;20441;-58
2023/03/16 04:48:19;;;;;;;13.17;9.60;;;;;;;;;;5012380;28;21059;-55
2023/03/16 04:50:50;;;;;;;14.63;10.50;;;;;;;;;;5027273;28;20438;-55
2023/03/16 04:53:17;;;;;;;16.63;10.43;;;;;;;;;;5008162;28;20445;-57
2023/03/16 04:55:44;;;;;;;12.37;9.80;;;;;;;;;;5031488;28;20489;-56
2023/03/16 04:58:10;;;;;;;14.90;11.13;;;;;;;;;;5023850;28;20541;-55
2023/03/16 05:00:36;;;;;;;14.47;10.20;;;;;;;;;;5036660;28;21148;-52
2023/03/16 05:03:03;;;;;;;15.77;11.17;;;;;;;;;;5028089;28;20453;-54
2023/03/16 05:05:29;;;;;;;13.90;11.10;;;;;;;;;;5030932;28;20546;-54
2023/03/16 05:07:54;;;;;;;13.03;10.03;;;;;;;;;;5013261;28;20442;-56
2023/03/16 05:10:20;;;;;;;13.70;9.70;;;;;;;;;;5034734;28;20435;-54
2023/03/16 05:12:46;;;;;;;16.17;10.23;;;;;;;;;;5002530;28;20449;-54
2023/03/16 05:15:12;;;;;;;13.63;9.97;;;;;;;;;;5031103;28;20466;-54
2023/03/16 05:17:41;;;;;;;22.17;9.70;;;;;;;;;;5000225;28;20916;-53
2023/03/16 05:20:07;;;;;;;17.70;9.93;;;;;;;;;;5023988;28;20446;-54
2023/03/16 05:22:36;;;;;;;14.40;9.20;;;;;;;;;;5051594;28;20428;-54
2023/03/16 05:25:04;;;;;;;14.13;10.53;;;;;;;;;;5045394;28;20438;-54
2023/03/16 05:27:30;;;;;;;13.07;10.60;;;;;;;;;;5009487;28;20447;-55
2023/03/16 05:29:56;;;;;;;12.50;8.80;;;;;;;;;;5038026;28;20446;-54
2023/03/16 05:32:23;;;;;;;18.80;12.53;;;;;;;;;;5028981;28;20646;-54
2023/03/16 05:34:51;;;;;;;14.40;8.60;;;;;;;;;;5039560;28;21563;-53
2023/03/16 05:37:18;;;;;;;12.57;9.43;;;;;;;;;;5009607;28;20445;-54
2023/03/16 05:39:43;;;;;;;16.73;10.43;;;;;;;;;;5036874;28;21207;-53
2023/03/16 05:42:10;;;;;;;15.20;11.07;;;;;;;;;;4995274;28;20916;-51
2023/03/16 05:44:36;;;;;;;14.13;10.23;;;;;;;;;;5033148;28;20506;-54
2023/03/16 05:47:02;;;;;;;16.23;10.73;;;;;;;;;;4995636;28;20438;-53
2023/03/16 05:49:28;;;;;;;16.17;10.47;;;;;;;;;;5007025;28;20450;-54
2023/03/16 05:51:54;;;;;;;19.97;11.00;;;;;;;;;;5029011;28;20434;-52
2023/03/16 05:54:20;;;;;;;15.50;10.33;;;;;;;;;;5025950;28;20474;-54
2023/03/16 05:56:46;;;;;;;13.53;9.90;;;;;;;;;;5032952;28;20473;-54
2023/03/16 05:59:12;;;;;;;13.53;10.23;;;;;;;;;;4998011;28;20443;-54
2023/03/16 06:01:39;;;;;;;14.27;11.07;;;;;;;;;;5032930;28;20437;-55
2023/03/16 06:04:06;;;;;;;16.13;10.73;;;;;;;;;;5019228;28;20493;-54
2023/03/16 06:06:32;;;;;;;16.20;10.97;;;;;;;;;;5032600;28;20477;-54
2023/03/16 06:08:58;;;;;;;14.23;10.40;;;;;;;;;;5023832;28;20726;-55
2023/03/16 06:11:24;;;;;;;14.80;10.00;;;;;;;;;;5029434;28;20476;-54
2023/03/16 06:13:50;;;;;;;13.97;10.20;;;;;;;;;;4956922;28;21008;-52
2023/03/16 06:16:16;;;;;;;15.30;10.33;;;;;;;;;;5023394;28;20482;-53
2023/03/16 06:18:42;;;;;;;15.37;10.47;;;;;;;;;;4999432;28;20439;-55
2023/03/16 06:21:08;;;;;;;17.30;9.30;;;;;;;;;;5027573;28;20476;-54
2023/03/16 06:23:34;;;;;;;12.67;9.73;;;;;;;;;;5030517;28;21998;-54
2023/03/16 06:26:00;;;;;;;14.27;10.57;;;;;;;;;;5026254;28;20980;-55
2023/03/16 06:28:26;;;;;;;16.17;10.80;;;;;;;;;;5001585;28;20465;-57
2023/03/16 06:30:53;;;;;;;18.23;12.87;;;;;;;;;;5024320;28;20540;-55
2023/03/16 06:33:19;;;;;;;15.27;11.20;;;;;;;;;;5031979;28;20414;-54
2023/03/16 06:35:47;;;;;;;16.37;10.83;;;;;;;;;;5026530;28;20488;-54
2023/03/16 06:38:13;;;;;;;16.30;10.53;;;;;;;;;;5030345;28;20445;-55
2023/03/16 06:40:40;;;;;;;14.30;10.03;;;;;;;;;;5022900;28;20445;-54
2023/03/16 06:43:11;;;;;;;15.57;11.30;;;;;;;;;;5014588;28;20859;-54
2023/03/16 06:45:40;;;;;;;14.30;9.97;;;;;;;;;;4996053;28;22130;-56
2023/03/16 06:48:08;;;;;;;13.83;10.20;;;;;;;;;;5010580;28;21159;-55
2023/03/16 06:50:34;;;;;;;19.17;12.00;;;;;;;;;;5016247;28;20457;-54
2023/03/16 06:53:00;;;;;;;19.20;12.57;;;;;;;;;;5030367;28;20426;-55
2023/03/16 06:55:26;;;;;;;16.50;11.80;;;;;;;;;;5021338;28;20477;-55
2023/03/16 06:57:52;;;;;;;15.83;10.80;;;;;;;;;;5034300;28;20446;-55
2023/03/16 07:00:18;;;;;;;15.10;10.30;;;;;;;;;;5035524;28;21030;-54
2023/03/16 07:02:44;;;;;;;15.00;10.20;;;;;;;;;;5037704;28;20517;-53
2023/03/16 07:05:12;;;;;;;16.13;10.63;;;;;;;;;;5004703;28;20451;-54
2023/03/16 07:07:38;;;;;;;15.00;10.83;;;;;;;;;;5040380;28;20435;-55
2023/03/16 07:10:04;;;;;;;16.33;12.63;;;;;;;;;;4995085;28;20447;-55
2023/03/16 07:12:30;;;;;;;13.07;9.17;;;;;;;;;;5036878;28;20480;-55
2023/03/16 07:15:17;;;;;;;16.80;10.43;;;;;;;;;;5028324;28;20471;-56
2023/03/16 07:17:47;;;;;;;19.00;11.50;;;;;;;;;;5036194;28;20424;-54
2023/03/16 07:20:16;;;;;;;16.20;11.60;;;;;;;;;;4997848;28;21296;-55
2023/03/16 07:22:42;;;;;;;12.80;9.03;;;;;;;;;;5038364;28;20458;-54
2023/03/16 07:25:10;;;;;;;17.20;11.50;;;;;;;;;;5016176;28;20451;-54
2023/03/16 07:27:36;;;;;;;14.40;10.10;;;;;;;;;;5039848;28;20433;-54
2023/03/16 07:30:03;;;;;;;11.50;8.70;;;;;;;;;;5022279;28;20533;-54
2023/03/16 07:32:31;;;;;;;15.80;10.47;;;;;;;;;;5031929;28;20527;-56
2023/03/16 07:34:57;;;;;;;14.30;10.43;;;;;;;;;;5000745;28;20980;-53
2023/03/16 07:37:23;;;;;;;15.90;9.83;;;;;;;;;;5009791;28;20567;-53
2023/03/16 07:39:50;;;;;;;13.13;8.63;;;;;;;;;;5038252;28;20438;-54
2023/03/16 07:42:16;;;;;;;11.07;7.67;;;;;;;;;;5037572;28;20431;-52
2023/03/16 07:44:42;;;;;;;13.10;9.20;;;;;;;;;;5038760;28;20442;-53
2023/03/16 07:47:19;;;;;;;13.03;9.80;;;;;;;;;;5024220;28;20545;-55
2023/03/16 07:49:45;;;;;;;16.23;9.17;;;;;;;;;;5024473;28;20454;-55
2023/03/16 07:52:12;;;;;;;15.60;11.43;;;;;;;;;;5021511;28;20479;-54
2023/03/16 07:54:39;;;;;;;15.60;9.67;;;;;;;;;;5039537;28;20827;-55
2023/03/16 07:57:05;;;;;;;15.63;10.70;;;;;;;;;;5024137;28;20502;-55
2023/03/16 07:59:31;;;;;;;14.57;9.50;;;;;;;;;;5031640;28;20517;-55
2023/03/16 08:01:57;;;;;;;14.40;8.80;;;;;;;;;;5041527;28;20442;-55
2023/03/16 08:04:23;;;;;;;11.40;8.70;;;;;;;;;;5030128;28;21020;-55
2023/03/16 08:06:58;;;;;;;12.90;10.60;;;;;;;;;;5028119;28;20534;-55
2023/03/16 08:09:26;;;;;;;12.70;8.67;;;;;;;;;;5015529;28;20795;-55
2023/03/16 08:11:52;;;;;;;13.60;8.63;;;;;;;;;;5035979;28;20517;-57
2023/03/16 08:14:18;;;;;;;13.27;8.93;;;;;;;;;;5035543;28;21104;-54
2023/03/16 08:16:44;;;;;;;13.80;9.87;;;;;;;;;;5026024;28;20447;-55
2023/03/16 08:19:10;;;;;;;12.60;8.60;;;;;;;;;;5019514;28;20438;-55
2023/03/16 08:21:41;;;;;;;13.10;7.83;;;;;;;;;;5028333;28;20442;-55
2023/03/16 08:24:10;;;;;;;12.57;7.20;;;;;;;;;;5014872;28;20984;-55
2023/03/16 08:26:36;;;;;;;12.27;6.07;;;;;;;;;;5030151;28;20533;-54
2023/03/16 08:29:02;;;;;;;9.57;6.00;;;;;;;;;;5027556;28;20448;-54
2023/03/16 08:31:29;;;;;;;11.50;7.33;;;;;;;;;;5037815;28;20435;-55
2023/03/16 08:33:56;;;;;;;10.20;5.60;;;;;;;;;;5012492;28;20453;-55
2023/03/16 08:36:21;;;;;;;8.13;6.50;;;;;;;;;;5041008;28;20993;-55
2023/03/16 08:38:48;;;;;;;9.57;6.77;;;;;;;;;;5008718;28;20465;-54
2023/03/16 08:41:16;;;;;;;8.20;5.20;;;;;;;;;;5041060;28;20454;-54
2023/03/16 08:43:43;;;;;;;8.93;6.50;;;;;;;;;;5028905;28;21048;-55
2023/03/16 08:46:10;;;;;;;8.23;5.47;;;;;;;;;;5036724;28;20445;-55
2023/03/16 08:48:36;;;;;;;13.17;7.10;;;;;;;;;;5009061;28;20515;-55
2023/03/16 08:51:02;;;;;;;9.87;5.83;;;;;;;;;;5032378;28;20968;-54
2023/03/16 08:53:29;;;;;;;8.43;5.03;;;;;;;;;;5011412;28;20427;-55
2023/03/16 08:56:02;;;;;;;8.20;6.60;;;;;;;;;;5035448;28;20571;-55
2023/03/16 08:58:29;;;;;;;8.83;6.13;;;;;;;;;;5050899;28;20809;-54
2023/03/16 09:00:55;;;;;;;6.40;5.20;;;;;;;;;;5029906;28;20446;-55
2023/03/16 09:03:21;;;;;;;8.43;5.87;;;;;;;;;;5036067;28;20552;-55
2023/03/16 09:05:48;;;;;;;10.03;6.63;;;;;;;;;;5032565;28;20445;-55
2023/03/16 09:08:14;;;;;;;7.83;6.07;;;;;;;;;;5006193;28;20662;-54
2023/03/16 09:10:41;;;;;;;7.10;4.97;;;;;;;;;;5038380;28;20531;-54
2023/03/16 09:13:07;;;;;;;10.70;4.80;;;;;;;;;;5010257;28;21195;-54
2023/03/16 09:15:34;;;;;;;6.07;5.07;;;;;;;;;;5036346;28;20478;-55
2023/03/16 09:18:02;;;;;;;7.17;5.23;;;;;;;;;;5029808;28;20443;-55
2023/03/16 09:20:28;;;;;;;8.97;5.87;;;;;;;;;;5035940;28;20896;-54
2023/03/16 09:22:55;;;;;;;6.20;5.50;;;;;;;;;;5035020;28;20426;-55
2023/03/16 09:25:20;;;;;;;6.10;5.13;;;;;;;;;;5039654;28;20453;-56
2023/03/16 09:27:46;;;;;;;10.00;6.27;;;;;;;;;;4996252;28;20569;-55
2023/03/16 09:30:13;;;;;;;9.10;5.10;;;;;;;;;;5014295;28;20504;-54
2023/03/16 09:32:39;;;;;;;9.93;5.70;;;;;;;;;;5037838;28;20470;-54
2023/03/16 09:35:05;;;;;;;6.97;5.70;;;;;;;;;;5032448;28;20485;-54
2023/03/16 09:37:32;;;;;;;7.37;5.10;;;;;;;;;;5029892;28;20516;-54
2023/03/16 09:39:58;;;;;;;4.40;4.00;;;;;;;;;;5015715;28;20487;-53
2023/03/16 09:42:24;;;;;;;6.30;4.90;;;;;;;;;;5037664;28;20473;-54
2023/03/16 09:44:59;;;;;;;5.80;3.77;;;;;;;;;;5006502;28;20442;-55
2023/03/16 09:47:27;;;;;;;8.70;4.00;;;;;;;;;;5028583;28;21002;-55
2023/03/16 09:49:53;;;;;;;7.77;4.50;;;;;;;;;;5005735;28;20480;-55
2023/03/16 09:52:32;;;;;;;6.77;3.73;;;;;;;;;;5040244;28;20450;-54
2023/03/16 09:54:58;;;;;;;4.37;3.73;;;;;;;;;;5037170;28;22050;-54
2023/03/16 09:57:28;;;;;;;4.63;3.50;;;;;;;;;;5035059;28;20438;-54
2023/03/16 09:59:55;;;;;;;8.40;4.27;;;;;;;;;;5013515;28;21517;-54
2023/03/16 10:02:27;;;;;;;4.93;4.43;;;;;;;;;;5050219;28;20986;-57
2023/03/16 10:04:56;;;;;;;5.37;3.40;;;;;;;;;;5013309;28;20435;-53
2023/03/16 10:07:28;;;;;;;4.83;3.23;;;;;;;;;;5040558;28;20426;-55
2023/03/16 10:09:56;;;;;;;6.80;3.73;;;;;;;;;;5011869;28;20442;-55
2023/03/16 10:12:23;;;;;;;5.13;4.63;;;;;;;;;;5038665;28;20426;-54
2023/03/16 10:14:51;;;;;;;7.07;4.60;;;;;;;;;;5013819;28;20471;-54
2023/03/16 10:17:21;;;;;;;5.03;4.50;;;;;;;;;;4997566;28;20438;-54
2023/03/16 10:19:57;;;;;;;5.90;4.03;;;;;;;;;;5050549;28;20504;-54
2023/03/16 10:22:46;;;;;;;6.10;3.80;;;;;;;;;;5034286;28;20524;-54
2023/03/16 10:25:12;;;;;;;5.77;3.97;;;;;;;;;;5031741;28;20442;-55
2023/03/16 10:27:39;;;;;;;6.17;4.20;;;;;;;;;;5023225;28;20487;-55
2023/03/16 10:30:27;;;;;;;5.63;3.87;;;;;;;;;;5036068;28;20427;-54
2023/03/16 10:33:02;;;;;;;4.70;4.03;;;;;;;;;;5005498;28;20497;-56
2023/03/16 10:35:47;;;;;;;5.10;3.30;;;;;;;;;;5043480;28;20473;-55
2023/03/16 10:38:47;;;;;;;6.50;3.77;;;;;;;;;;5017399;28;20426;-55
2023/03/16 10:41:21;;;;;;;5.93;3.70;;;;;;;;;;5016795;28;21008;-54
2023/03/16 10:43:54;;;;;;;6.80;4.53;;;;;;;;;;5019491;28;20485;-54
2023/03/16 10:46:21;;;;;;;5.60;3.77;;;;;;;;;;5047423;28;20434;-56
2023/03/16 10:48:58;;;;;;;11.00;4.40;;;;;;;;;;5031027;28;20500;-54
2023/03/16 10:51:25;;;;;;;5.67;3.87;;;;;;;;;;5043879;28;20434;-55
2023/03/16 10:53:51;;;;;;;7.20;4.10;;;;;;;;;;5050350;28;20435;-53
2023/03/16 10:56:22;;;;;;;10.70;4.80;;;;;;;;;;5047070;28;20482;-54
2023/03/16 10:58:48;;;;;;;4.20;3.50;;;;;;;;;;5020808;28;20987;-54
2023/03/16 11:01:29;;;;;;;4.77;4.03;;;;;;;;;;5035721;28;20460;-55
2023/03/16 11:04:01;;;;;;;8.53;4.70;;;;;;;;;;4989807;28;20437;-54
2023/03/16 11:06:31;;;;;;;4.53;4.07;;;;;;;;;;5038113;28;20970;-54
2023/03/16 11:09:07;;;;;;;4.13;3.30;;;;;;;;;;5015602;28;20551;-54
2023/03/16 11:11:33;;;;;;;7.20;3.83;;;;;;;;;;5040123;28;21333;-54
2023/03/16 11:14:01;;;;;;;6.13;3.47;;;;;;;;;;5015508;28;20490;-55
2023/03/16 11:16:30;;;;;;;7.00;3.10;;;;;;;;;;5035494;28;20540;-59
2023/03/16 11:19:03;;;;;;;3.90;2.70;;;;;;;;;;5016640;28;20446;-53
2023/03/16 11:21:41;;;;;;;5.20;3.23;;;;;;;;;;5039227;28;21042;-55
2023/03/16 11:24:23;;;;;;;4.90;3.00;;;;;;;;;;5037609;28;20442;-56
2023/03/16 11:26:53;;;;;;;6.80;3.00;;;;;;;;;;5036058;28;20446;-60
2023/03/16 11:29:25;;;;;;;5.23;3.10;;;;;;;;;;5012419;28;20430;-55
2023/03/16 11:31:54;;;;;;;12.40;3.67;;;;;;;;;;4993612;28;20479;-54
2023/03/16 11:34:36;;;;;;;3.07;2.77;;;;;;;;;;5035510;28;20519;-57
2023/03/16 11:37:21;;;;;;;4.10;3.30;;;;;;;;;;4947309;28;20541;-56
2023/03/16 11:39:55;;;;;;;3.83;2.73;;;;;;;;;;4992101;28;20432;-53
2023/03/16 11:42:35;;;;;;;3.90;2.60;;;;;;;;;;4990468;28;20572;-54
2023/03/16 11:45:20;;;;;;;4.23;2.70;;;;;;;;;;4972346;28;21308;-54
2023/03/16 11:48:05;;;;;;;5.13;3.23;;;;;;;;;;5039381;28;20476;-54
2023/03/16 11:50:50;;;;;;;4.17;2.97;;;;;;;;;;5009558;28;20529;-54
2023/03/16 11:53:19;;;;;;;3.73;2.63;;;;;;;;;;5038493;28;20528;-54
2023/03/16 11:55:45;;;;;;;4.00;2.70;;;;;;;;;;5037808;28;20474;-54
2023/03/16 11:58:21;;;;;;;3.03;2.73;;;;;;;;;;5037795;28;20416;-57
2023/03/16 12:00:56;;;;;;;4.30;2.67;;;;;;;;;;5011059;28;20455;-53
2023/03/16 12:03:41;;;;;;;3.10;2.20;;;;;;;;;;5034119;28;20441;-54
2023/03/16 12:06:10;;;;;;;4.30;3.30;;;;;;;;;;5031109;28;20430;-55
2023/03/16 12:08:57;;;;;;;3.73;2.80;;;;;;;;;;5036973;28;20513;-55
2023/03/16 12:11:27;;;;;;;3.97;2.80;;;;;;;;;;4985335;28;20522;-55
2023/03/16 12:14:00;;;;;;;2.57;2.00;;;;;;;;;;5037426;28;20459;-55
2023/03/16 12:16:27;;;;;;;3.27;2.50;;;;;;;;;;5015079;28;20482;-56
2023/03/16 12:18:54;;;;;;;3.20;2.77;;;;;;;;;;5039821;28;20449;-55
2023/03/16 12:21:23;;;;;;;3.30;2.80;;;;;;;;;;5015041;28;23767;-54
2023/03/16 12:23:51;;;;;;;6.63;3.37;;;;;;;;;;5039184;28;20434;-55
2023/03/16 12:26:17;;;;;;;2.80;2.50;;;;;;;;;;5014501;28;20442;-54
2023/03/16 12:28:43;;;;;;;4.33;2.67;;;;;;;;;;5042375;28;20448;-54
2023/03/16 12:31:27;;;;;;;3.17;2.40;;;;;;;;;;5020795;28;20451;-53
2023/03/16 12:33:56;;;;;;;4.73;2.63;;;;;;;;;;5041253;28;20517;-55
2023/03/16 12:36:36;;;;;;;4.50;2.97;;;;;;;;;;5014248;28;20485;-55
2023/03/16 12:39:05;;;;;;;6.83;2.77;;;;;;;;;;5029044;28;20480;-55
2023/03/16 12:41:41;;;;;;;3.10;2.53;;;;;;;;;;4988158;28;20522;-55
2023/03/16 12:44:16;;;;;;;7.30;2.70;;;;;;;;;;5037131;28;20444;-54
2023/03/16 12:46:56;;;;;;;3.80;2.53;;;;;;;;;;5009419;28;20456;-55
2023/03/16 12:49:27;;;;;;;4.57;2.30;;;;;;;;;;5039837;28;20448;-56
2023/03/16 12:52:00;;;;;;;2.50;2.13;;;;;;;;;;5008853;28;20682;-54
2023/03/16 12:54:26;;;;;;;3.53;2.40;;;;;;;;;;5039478;28;20586;-55
2023/03/16 12:56:54;;;;;;;3.50;2.40;;;;;;;;;;5022120;28;20450;-55
2023/03/16 12:59:21;;;;;;;3.37;2.80;;;;;;;;;;5035351;28;20442;-55
2023/03/16 13:01:51;;;;;;;3.83;2.77;;;;;;;;;;5030668;28;20444;-55
2023/03/16 13:04:18;;;;;;;3.50;2.23;;;;;;;;;;5045594;28;20443;-55
2023/03/16 13:06:47;;;;;;;5.60;2.40;;;;;;;;;;5025494;28;21387;-55
2023/03/16 13:09:14;;;;;;;5.40;2.50;;;;;;;;;;5039876;28;20456;-55
2023/03/16 13:11:44;;;;;;;4.93;2.53;;;;;;;;;;5022188;28;20538;-56
2023/03/16 13:14:14;;;;;;;3.80;2.97;;;;;;;;;;5030619;28;20438;-55
2023/03/16 13:16:40;;;;;;;3.43;2.20;;;;;;;;;;5043671;28;20531;-55
2023/03/16 13:19:25;;;;;;;3.77;3.37;;;;;;;;;;5023272;28;20471;-55
2023/03/16 13:22:03;;;;;;;4.97;3.20;;;;;;;;;;5020592;28;20448;-55
2023/03/16 13:24:39;;;;;;;5.10;2.60;;;;;;;;;;5035537;28;20442;-56
2023/03/16 13:27:10;;;;;;;2.63;2.03;;;;;;;;;;5016143;28;20929;-55
2023/03/16 13:29:36;;;;;;;3.37;2.60;;;;;;;;;;5033193;28;20430;-54
2023/03/16 13:32:03;;;;;;;6.40;2.60;;;;;;;;;;5036513;28;20429;-54
2023/03/16 13:34:29;;;;;;;3.20;2.33;;;;;;;;;;5037874;28;20447;-54
2023/03/16 13:36:56;;;;;;;3.20;2.00;;;;;;;;;;5024682;28;21055;-54
2023/03/16 13:39:22;;;;;;;2.63;1.87;;;;;;;;;;5032156;28;20489;-55
2023/03/16 13:42:05;;;;;;;5.33;2.20;;;;;;;;;;5020308;28;20952;-56
2023/03/16 13:44:39;;;;;;;5.50;2.33;;;;;;;;;;5034669;28;20437;-56
2023/03/16 13:47:06;;;;;;;3.30;2.27;;;;;;;;;;4979336;28;23225;-54
2023/03/16 13:49:32;;;;;;;2.40;1.87;;;;;;;;;;4991926;28;20448;-55
2023/03/16 13:51:59;;;;;;;4.37;2.00;;;;;;;;;;4987390;28;20513;-55
2023/03/16 13:54:27;;;;;;;3.53;2.10;;;;;;;;;;4994095;28;21212;-55
2023/03/16 13:56:55;;;;;;;3.60;1.77;;;;;;;;;;4979354;28;20460;-54
2023/03/16 13:59:21;;;;;;;3.10;2.20;;;;;;;;;;4988771;28;20821;-52
2023/03/16 14:01:48;;;;;;;3.10;1.90;;;;;;;;;;4966437;28;21531;-54
2023/03/16 14:04:17;;;;;;;3.27;1.73;;;;;;;;;;5006137;28;20428;-54
2023/03/16 14:06:51;;;;;;;3.23;1.77;;;;;;;;;;5044571;28;20452;-55
2023/03/16 14:09:17;;;;;;;2.30;1.60;;;;;;;;;;5037545;28;20427;-55
2023/03/16 14:11:47;;;;;;;3.63;1.97;;;;;;;;;;5009051;28;20430;-55
2023/03/16 14:14:14;;;;;;;4.97;1.83;;;;;;;;;;5038453;28;20503;-54
2023/03/16 14:16:41;;;;;;;2.63;1.50;;;;;;;;;;4998896;28;21024;-53
2023/03/16 14:19:18;;;;;;;2.67;1.60;;;;;;;;;;5031453;28;20587;-54
2023/03/16 14:21:44;;;;;;;4.03;2.30;;;;;;;;;;5045126;28;20466;-55
2023/03/16 14:24:30;;;;;;;2.67;1.63;;;;;;;;;;5031586;28;20457;-55
2023/03/16 14:26:57;;;;;;;2.10;1.70;;;;;;;;;;5035293;28;20472;-54
2023/03/16 14:29:26;;;;;;;5.00;2.07;;;;;;;;;;5019651;28;20466;-56
2023/03/16 14:31:53;;;;;;;2.07;1.50;;;;;;;;;;5037264;28;20453;-55
2023/03/16 14:34:28;;;;;;;2.10;1.47;;;;;;;;;;5036000;28;20434;-56
2023/03/16 14:37:08;;;;;;;2.30;1.30;;;;;;;;;;5042610;28;20442;-55
2023/03/16 14:39:34;;;;;;;3.50;1.60;;;;;;;;;;5015093;28;20447;-55